createdAt,value
2023-04-08T00:00:50.872Z,101362.22
2023-04-08T00:03:19.075Z,101364.69
2023-04-08T00:05:46.236Z,101365.13
2023-04-08T00:08:13.871Z,101364.53
2023-04-08T00:10:41.024Z,101371.19
2023-04-08T00:13:07.967Z,101362.63
2023-04-08T00:15:34.848Z,101372.38
2023-04-08T00:18:02.311Z,101367.56
2023-04-08T00:20:29.416Z,101371.13
2023-04-08T00:22:56.318Z,101366.19
2023-04-08T00:25:25.386Z,101363.75
2023-04-08T00:27:53.108Z,101374.59
2023-04-08T00:30:20.376Z,101371.47
2023-04-08T00:32:47.309Z,101370.84
2023-04-08T00:35:14.250Z,101368.06
2023-04-08T00:37:41.794Z,101374.59
2023-04-08T00:40:09.687Z,101371.41
2023-04-08T00:42:36.901Z,101369.59
2023-04-08T00:45:04.237Z,101375.16
2023-04-08T00:47:31.592Z,101377.19
2023-04-08T00:49:58.721Z,101380.63
2023-04-08T00:52:25.983Z,101377.41
2023-04-08T00:54:52.880Z,101373.25
2023-04-08T00:57:20.132Z,101376.38
2023-04-08T00:59:47.082Z,101379.16
2023-04-08T01:02:19.717Z,101378.50
2023-04-08T01:04:56.626Z,101383.22
2023-04-08T01:07:32.121Z,101379.06
2023-04-08T01:10:06.406Z,101379.28
2023-04-08T01:12:41.499Z,101376.16
2023-04-08T01:15:12.113Z,101376.16
2023-04-08T01:17:39.499Z,101378.31
2023-04-08T01:20:09.609Z,101382.16
2023-04-08T01:23:00.716Z,101377.03
2023-04-08T01:25:33.866Z,101383.25
2023-04-08T01:28:05.041Z,101384.28
2023-04-08T01:30:33.846Z,101388.16
2023-04-08T01:33:03.195Z,101391.81
2023-04-08T01:35:31.620Z,101386.56
2023-04-08T01:38:00.201Z,101398.13
2023-04-08T01:40:27.392Z,101400.91
2023-04-08T01:42:57.513Z,101400.16
2023-04-08T01:45:25.883Z,101392.53
2023-04-08T01:47:53.738Z,101393.53
2023-04-08T01:50:21.746Z,101397.78
2023-04-08T01:52:50.414Z,101399.91
2023-04-08T01:55:17.952Z,101396.50
2023-04-08T01:57:51.066Z,101399.38
2023-04-08T02:00:23.447Z,101401.19
2023-04-08T02:02:51.802Z,101402.47
2023-04-08T02:05:19.058Z,101406.13
2023-04-08T02:07:48.409Z,101401.81
2023-04-08T02:10:16.984Z,101395.41
2023-04-08T02:12:45.103Z,101401.16
2023-04-08T02:15:14.235Z,101405.56
2023-04-08T02:18:01.601Z,101393.47
2023-04-08T02:20:44.081Z,101401.38
2023-04-08T02:23:21.569Z,101400.84
2023-04-08T02:25:49.954Z,101403.50
2023-04-08T02:28:19.435Z,101399.44
2023-04-08T02:30:51.863Z,101409.28
2023-04-08T02:33:22.301Z,101402.44
2023-04-08T02:35:56.236Z,101397.16
2023-04-08T02:38:24.500Z,101406.03
2023-04-08T02:40:51.829Z,101404.34
2023-04-08T02:43:18.752Z,101417.50
2023-04-08T02:45:46.231Z,101418.66
2023-04-08T02:48:13.199Z,101409.88
2023-04-08T02:50:40.951Z,101420.78
2023-04-08T02:53:09.758Z,101426.13
2023-04-08T02:55:36.719Z,101421.00
2023-04-08T02:58:03.732Z,101429.97
2023-04-08T03:00:31.082Z,101433.72
2023-04-08T03:02:58.162Z,101432.97
2023-04-08T03:05:27.714Z,101431.34
2023-04-08T03:07:54.710Z,101440.34
2023-04-08T03:10:21.590Z,101438.69
2023-04-08T03:12:48.766Z,101432.50
2023-04-08T03:15:15.985Z,101444.25
2023-04-08T03:17:42.896Z,101442.75
2023-04-08T03:20:11.065Z,101443.78
2023-04-08T03:22:37.932Z,101440.34
2023-04-08T03:25:05.649Z,101441.44
2023-04-08T03:27:32.560Z,101446.88
2023-04-08T03:29:59.484Z,101446.03
2023-04-08T03:32:26.530Z,101446.13
2023-04-08T03:34:53.813Z,101446.28
2023-04-08T03:37:20.706Z,101442.00
2023-04-08T03:39:47.594Z,101446.69
2023-04-08T03:42:14.545Z,101452.91
2023-04-08T03:44:41.815Z,101449.56
2023-04-08T03:47:08.741Z,101453.97
2023-04-08T03:49:35.878Z,101447.19
2023-04-08T03:52:03.026Z,101448.13
2023-04-08T03:54:29.873Z,101452.81
2023-04-08T03:56:56.781Z,101452.81
2023-04-08T03:59:23.648Z,101454.72
2023-04-08T04:01:51.616Z,101451.19
2023-04-08T04:04:18.892Z,101455.13
2023-04-08T04:06:45.998Z,101450.00
2023-04-08T04:09:12.903Z,101447.31
2023-04-08T04:11:39.776Z,101450.06
2023-04-08T04:14:06.671Z,101450.34
2023-04-08T04:16:33.748Z,101453.22
2023-04-08T04:19:00.938Z,101457.81
2023-04-08T04:21:27.941Z,101453.59
2023-04-08T04:23:54.825Z,101451.97
2023-04-08T04:26:21.842Z,101446.72
2023-04-08T04:28:49.150Z,101453.22
2023-04-08T04:31:26.571Z,101458.84
2023-04-08T04:33:54.444Z,101454.53
2023-04-08T04:36:21.383Z,101459.13
2023-04-08T04:38:50.560Z,101461.03
2023-04-08T04:41:17.999Z,101458.66
2023-04-08T04:43:45.159Z,101467.69
2023-04-08T04:46:12.267Z,101475.78
2023-04-08T04:48:39.279Z,101470.56
2023-04-08T04:51:07.780Z,101480.50
2023-04-08T04:53:34.996Z,101481.59
2023-04-08T04:56:02.432Z,101480.66
2023-04-08T04:58:30.985Z,101475.69
2023-04-08T05:00:58.516Z,101484.06
2023-04-08T05:03:25.703Z,101481.31
2023-04-08T05:05:54.638Z,101484.06
2023-04-08T05:08:22.442Z,101484.25
2023-04-08T05:10:52.649Z,101487.09
2023-04-08T05:13:19.530Z,101488.25
2023-04-08T05:15:46.968Z,101499.00
2023-04-08T05:18:14.085Z,101502.72
2023-04-08T05:20:41.212Z,101498.31
2023-04-08T05:23:09.147Z,101502.91
2023-04-08T05:25:36.397Z,101511.88
2023-04-08T05:28:04.025Z,101512.81
2023-04-08T05:30:31.252Z,101517.38
2023-04-08T05:33:00.416Z,101519.19
2023-04-08T05:35:28.708Z,101522.88
2023-04-08T05:37:55.832Z,101525.47
2023-04-08T05:40:22.807Z,101523.06
2023-04-08T05:42:49.703Z,101534.44
2023-04-08T05:45:16.626Z,101526.50
2023-04-08T05:47:43.574Z,101532.47
2023-04-08T05:50:11.615Z,101531.41
2023-04-08T05:52:44.986Z,101538.56
2023-04-08T05:55:14.460Z,101535.16
2023-04-08T05:57:41.987Z,101541.34
2023-04-08T06:00:11.373Z,101544.81
2023-04-08T06:02:38.923Z,101547.13
2023-04-08T06:05:06.991Z,101544.09
2023-04-08T06:07:34.386Z,101551.34
2023-04-08T06:10:01.591Z,101551.47
2023-04-08T06:12:28.590Z,101556.50
2023-04-08T06:14:56.600Z,101553.91
2023-04-08T06:17:23.772Z,101552.25
2023-04-08T06:19:50.853Z,101563.38
2023-04-08T06:22:17.739Z,101553.38
2023-04-08T06:24:48.749Z,101557.78
2023-04-08T06:27:16.270Z,101555.91
2023-04-08T06:29:43.518Z,101554.34
2023-04-08T06:32:11.102Z,101550.50
2023-04-08T06:34:38.483Z,101558.78
2023-04-08T06:37:06.698Z,101549.66
2023-04-08T06:39:34.187Z,101551.38
2023-04-08T06:42:01.248Z,101549.06
2023-04-08T06:44:28.294Z,101549.59
2023-04-08T06:46:55.211Z,101548.13
2023-04-08T06:49:22.178Z,101546.88
2023-04-08T06:51:49.322Z,101551.88
2023-04-08T06:54:16.199Z,101550.75
2023-04-08T06:56:43.206Z,101556.81
2023-04-08T06:59:10.079Z,101556.59
2023-04-08T07:01:36.980Z,101558.72
2023-04-08T07:04:04.175Z,101567.28
2023-04-08T07:06:31.378Z,101570.88
2023-04-08T07:08:58.257Z,101571.50
2023-04-08T07:11:25.232Z,101569.25
2023-04-08T07:13:52.752Z,101567.06
2023-04-08T07:16:19.671Z,101568.25
2023-04-08T07:18:47.883Z,101562.88
2023-04-08T07:21:15.380Z,101572.66
2023-04-08T07:23:42.296Z,101564.81
2023-04-08T07:26:09.751Z,101571.94
2023-04-08T07:28:36.677Z,101580.13
2023-04-08T07:31:16.245Z,101581.97
2023-04-08T07:33:44.688Z,101576.66
2023-04-08T07:36:13.375Z,101576.41
2023-04-08T07:38:41.067Z,101573.47
2023-04-08T07:41:08.035Z,101581.31
2023-04-08T07:43:36.588Z,101582.16
2023-04-08T07:46:07.332Z,101588.38
2023-04-08T07:48:35.560Z,101585.38
2023-04-08T07:51:10.971Z,101584.06
2023-04-08T07:53:39.617Z,101592.66
2023-04-08T07:56:15.111Z,101599.97
2023-04-08T07:58:43.007Z,101596.31
2023-04-08T08:01:22.443Z,101592.22
2023-04-08T08:03:51.839Z,101595.84
2023-04-08T08:06:19.413Z,101597.72
2023-04-08T08:08:46.532Z,101604.19
2023-04-08T08:11:13.833Z,101599.38
2023-04-08T08:13:40.821Z,101610.78
2023-04-08T08:16:09.395Z,101601.38
2023-04-08T08:18:37.103Z,101603.91
2023-04-08T08:21:04.331Z,101603.34
2023-04-08T08:23:31.680Z,101607.00
2023-04-08T08:26:03.615Z,101606.94
2023-04-08T08:28:30.549Z,101605.06
2023-04-08T08:30:57.782Z,101614.72
2023-04-08T08:33:26.232Z,101627.31
2023-04-08T08:35:53.116Z,101620.59
2023-04-08T08:38:20.247Z,101621.97
2023-04-08T08:40:47.426Z,101622.16
2023-04-08T08:43:14.626Z,101622.19
2023-04-08T08:45:42.811Z,101620.28
2023-04-08T08:48:10.067Z,101626.69
2023-04-08T08:50:37.266Z,101627.41
2023-04-08T08:53:04.447Z,101628.03
2023-04-08T08:56:05.068Z,101623.72
2023-04-08T08:58:22.623Z,101632.38
2023-04-08T09:00:49.528Z,101628.03
2023-04-08T09:03:19.901Z,101631.72
2023-04-08T09:06:02.142Z,101625.31
2023-04-08T09:08:34.345Z,101625.28
2023-04-08T09:11:27.508Z,101611.25
2023-04-08T09:13:54.527Z,101613.69
2023-04-08T09:16:23.541Z,101610.34
2023-04-08T09:18:50.707Z,101611.56
2023-04-08T09:21:18.679Z,101617.75
2023-04-08T09:23:49.443Z,101621.53
2023-04-08T09:26:23.169Z,101615.59
2023-04-08T09:29:24.964Z,101610.69
2023-04-08T09:31:58.408Z,101607.28
2023-04-08T09:34:27.740Z,101616.66
2023-04-08T09:36:56.364Z,101622.97
2023-04-08T09:39:24.061Z,101620.28
2023-04-08T09:41:52.975Z,101621.63
2023-04-08T09:44:22.078Z,101627.78
2023-04-08T09:46:52.912Z,101630.03
2023-04-08T09:49:26.151Z,101630.56
2023-04-08T09:52:12.309Z,101625.84
2023-04-08T09:55:04.721Z,101623.44
2023-04-08T09:57:44.746Z,101625.53
2023-04-08T10:00:14.802Z,101635.06
2023-04-08T10:03:13.579Z,101633.34
2023-04-08T10:05:42.634Z,101630.13
2023-04-08T10:08:10.739Z,101626.19
2023-04-08T10:10:41.036Z,101619.03
2023-04-08T10:13:08.833Z,101623.13
2023-04-08T10:15:43.434Z,101611.53
2023-04-08T10:18:10.208Z,101617.50
2023-04-08T10:20:37.151Z,101612.75
2023-04-08T10:23:05.707Z,101612.56
2023-04-08T10:25:34.807Z,101605.69
2023-04-08T10:28:23.087Z,101603.44
2023-04-08T10:30:52.362Z,101600.22
2023-04-08T10:33:29.264Z,101608.72
2023-04-08T10:36:12.430Z,101609.41
2023-04-08T10:38:42.790Z,101603.63
2023-04-08T10:41:14.607Z,101596.44
2023-04-08T10:43:41.546Z,101597.47
2023-04-08T10:46:12.223Z,101592.19
2023-04-08T10:48:39.287Z,101589.63
2023-04-08T10:51:06.445Z,101580.44
2023-04-08T10:53:40.153Z,101583.84
2023-04-08T10:56:16.419Z,101583.97
2023-04-08T10:58:52.081Z,101587.75
2023-04-08T11:01:20.178Z,101586.03
2023-04-08T11:03:47.276Z,101579.38
2023-04-08T11:06:14.511Z,101580.00
2023-04-08T11:08:41.875Z,101580.34
2023-04-08T11:11:11.975Z,101580.00
2023-04-08T11:13:52.991Z,101577.59
2023-04-08T11:16:23.090Z,101570.06
2023-04-08T11:18:51.584Z,101574.16
2023-04-08T11:21:18.663Z,101562.91
2023-04-08T11:23:45.740Z,101564.78
2023-04-08T11:26:15.767Z,101566.47
2023-04-08T11:28:43.606Z,101564.78
2023-04-08T11:31:11.213Z,101571.03
2023-04-08T11:33:39.147Z,101570.34
2023-04-08T11:36:06.475Z,101568.63
2023-04-08T11:38:33.486Z,101568.28
2023-04-08T11:41:00.738Z,101568.78
2023-04-08T11:43:28.840Z,101578.47
2023-04-08T11:45:56.030Z,101563.06
2023-04-08T11:48:24.078Z,101571.94
2023-04-08T11:51:09.421Z,101571.22
2023-04-08T11:53:39.111Z,101568.78
2023-04-08T11:56:20.082Z,101561.63
2023-04-08T11:58:48.028Z,101565.00
2023-04-08T12:01:15.512Z,101567.22
2023-04-08T12:04:02.668Z,101568.56
2023-04-08T12:06:29.852Z,101566.88
2023-04-08T12:08:57.112Z,101551.50
2023-04-08T12:11:25.028Z,101548.75
2023-04-08T12:13:53.116Z,101541.41
2023-04-08T12:16:21.038Z,101556.41
2023-04-08T12:18:48.144Z,101551.59
2023-04-08T12:21:15.098Z,101549.34
2023-04-08T12:23:42.311Z,101544.38
2023-04-08T12:26:09.417Z,101549.97
2023-04-08T12:28:36.642Z,101543.00
2023-04-08T12:31:04.132Z,101540.25
2023-04-08T12:33:31.818Z,101538.66
2023-04-08T12:35:59.593Z,101546.78
2023-04-08T12:38:27.520Z,101530.00
2023-04-08T12:40:55.553Z,101541.97
2023-04-08T12:43:23.980Z,101536.81
2023-04-08T12:45:52.174Z,101532.66
2023-04-08T12:48:19.823Z,101528.50
2023-04-08T12:50:46.786Z,101532.78
2023-04-08T12:53:13.667Z,101528.63
2023-04-08T12:55:41.881Z,101526.06
2023-04-08T12:58:09.558Z,101526.06
2023-04-08T13:00:39.260Z,101533.22
2023-04-08T13:03:06.655Z,101524.75
2023-04-08T13:05:43.335Z,101520.69
2023-04-08T13:08:14.852Z,101522.69
2023-04-08T13:10:42.918Z,101514.94
2023-04-08T13:13:10.000Z,101524.72
2023-04-08T13:15:37.192Z,101520.31
2023-04-08T13:18:05.277Z,101521.44
2023-04-08T13:20:32.294Z,101526.06
2023-04-08T13:23:01.175Z,101515.13
2023-04-08T13:25:28.077Z,101520.28
2023-04-08T13:27:54.932Z,101514.72
2023-04-08T13:30:21.847Z,101510.56
2023-04-08T13:32:48.912Z,101511.13
2023-04-08T13:35:16.160Z,101507.09
2023-04-08T13:37:43.062Z,101512.09
2023-04-08T13:40:10.571Z,101517.47
2023-04-08T13:42:37.757Z,101513.03
2023-04-08T13:45:05.399Z,101510.97
2023-04-08T13:47:32.425Z,101511.63
2023-04-08T13:49:59.297Z,101513.78
2023-04-08T13:52:26.219Z,101510.31
2023-04-08T13:54:53.463Z,101508.78
2023-04-08T13:57:20.576Z,101504.72
2023-04-08T13:59:47.471Z,101505.88
2023-04-08T14:02:14.421Z,101501.16
2023-04-08T14:04:41.361Z,101491.75
2023-04-08T14:07:08.459Z,101487.41
2023-04-08T14:09:36.087Z,101483.31
2023-04-08T14:12:03.027Z,101492.78
2023-04-08T14:14:30.080Z,101484.09
2023-04-08T14:16:57.282Z,101488.66
2023-04-08T14:19:24.424Z,101489.59
2023-04-08T14:21:51.565Z,101482.94
2023-04-08T14:24:18.602Z,101482.94
2023-04-08T14:26:45.830Z,101479.22
2023-04-08T14:29:12.772Z,101483.53
2023-04-08T14:31:39.720Z,101478.25
2023-04-08T14:34:06.769Z,101475.69
2023-04-08T14:36:34.046Z,101476.94
2023-04-08T14:39:01.185Z,101471.28
2023-04-08T14:41:28.133Z,101477.81
2023-04-08T14:43:55.365Z,101473.19
2023-04-08T14:46:22.645Z,101468.22
2023-04-08T14:48:49.899Z,101476.69
2023-04-08T14:51:17.085Z,101473.13
2023-04-08T14:53:44.048Z,101469.41
2023-04-08T14:56:11.508Z,101465.25
2023-04-08T14:58:38.484Z,101467.16
2023-04-08T15:01:05.471Z,101462.88
2023-04-08T15:03:32.655Z,101464.31
2023-04-08T15:06:00.078Z,101458.03
2023-04-08T15:08:27.147Z,101455.31
2023-04-08T15:10:54.258Z,101452.28
2023-04-08T15:13:21.245Z,101451.25
2023-04-08T15:15:48.498Z,101449.81
2023-04-08T15:18:15.706Z,101445.66
2023-04-08T15:20:42.731Z,101448.72
2023-04-08T15:23:09.999Z,101450.97
2023-04-08T15:25:36.974Z,101444.56
2023-04-08T15:28:03.926Z,101442.69
2023-04-08T15:30:35.661Z,101444.31
2023-04-08T15:33:06.052Z,101438.91
2023-04-08T15:35:33.987Z,101439.31
2023-04-08T15:38:01.275Z,101438.44
2023-04-08T15:40:28.365Z,101441.19
2023-04-08T15:42:56.245Z,101434.56
2023-04-08T15:45:23.252Z,101432.72
2023-04-08T15:47:50.817Z,101431.41
2023-04-08T15:50:17.841Z,101431.81
2023-04-08T15:52:45.410Z,101435.09
2023-04-08T15:55:12.496Z,101431.53
2023-04-08T15:57:39.575Z,101440.75
2023-04-08T16:00:11.327Z,101435.28
2023-04-08T16:02:39.038Z,101433.22
2023-04-08T16:05:06.762Z,101421.16
2023-04-08T16:07:33.616Z,101431.00
2023-04-08T16:10:00.895Z,101425.66
2023-04-08T16:12:27.793Z,101429.41
2023-04-08T16:14:55.098Z,101426.47
2023-04-08T16:17:22.209Z,101426.38
2023-04-08T16:19:51.847Z,101423.56
2023-04-08T16:22:19.103Z,101434.75
2023-04-08T16:24:46.478Z,101430.22
2023-04-08T16:27:13.398Z,101430.63
2023-04-08T16:29:41.061Z,101435.22
2023-04-08T16:32:09.209Z,101431.38
2023-04-08T16:34:36.402Z,101430.44
2023-04-08T16:37:03.385Z,101436.41
2023-04-08T16:39:30.398Z,101436.09
2023-04-08T16:41:57.449Z,101431.09
2023-04-08T16:44:24.365Z,101430.47
2023-04-08T16:46:51.625Z,101425.00
2023-04-08T16:49:18.960Z,101427.09
2023-04-08T16:51:45.868Z,101419.66
2023-04-08T16:54:12.965Z,101418.31
2023-04-08T16:56:44.569Z,101425.13
2023-04-08T16:59:12.890Z,101427.47
2023-04-08T17:01:40.205Z,101419.00
2023-04-08T17:04:07.643Z,101424.75
2023-04-08T17:06:36.161Z,101422.69
2023-04-08T17:09:04.186Z,101426.44
2023-04-08T17:11:31.481Z,101427.66
2023-04-08T17:13:58.878Z,101432.66
2023-04-08T17:16:25.877Z,101432.34
2023-04-08T17:18:53.005Z,101428.28
2023-04-08T17:21:20.419Z,101429.72
2023-04-08T17:23:47.390Z,101423.47
2023-04-08T17:26:14.995Z,101422.81
2023-04-08T17:28:42.007Z,101430.25
2023-04-08T17:31:10.001Z,101432.19
2023-04-08T17:33:37.094Z,101423.59
2023-04-08T17:36:04.270Z,101426.56
2023-04-08T17:38:31.456Z,101425.09
2023-04-08T17:40:58.415Z,101429.25
2023-04-08T17:43:25.444Z,101436.00
2023-04-08T17:45:52.339Z,101422.97
2023-04-08T17:48:19.224Z,101420.63
2023-04-08T17:50:46.439Z,101428.22
2023-04-08T17:53:13.294Z,101423.25
2023-04-08T17:55:40.152Z,101428.41
2023-04-08T17:58:07.673Z,101433.72
2023-04-08T18:00:34.548Z,101428.63
2023-04-08T18:03:01.709Z,101426.63
2023-04-08T18:05:30.288Z,101427.31
2023-04-08T18:07:58.480Z,101430.72
2023-04-08T18:10:25.583Z,101433.47
2023-04-08T18:13:03.757Z,101431.09
2023-04-08T18:15:37.711Z,101433.31
2023-04-08T18:18:04.982Z,101430.41
2023-04-08T18:20:36.446Z,101433.28
2023-04-08T18:23:04.878Z,101439.94
2023-04-08T18:25:32.721Z,101441.63
2023-04-08T18:27:59.912Z,101441.47
2023-04-08T18:30:26.933Z,101437.88
2023-04-08T18:32:53.927Z,101438.56
2023-04-08T18:35:21.400Z,101445.53
2023-04-08T18:37:48.308Z,101440.75
2023-04-08T18:40:15.883Z,101442.44
2023-04-08T18:42:42.757Z,101435.13
2023-04-08T18:45:09.950Z,101436.47
2023-04-08T18:47:38.013Z,101437.81
2023-04-08T18:50:05.553Z,101440.19
2023-04-08T18:52:33.225Z,101443.75
2023-04-08T18:55:00.301Z,101435.72
2023-04-08T18:57:27.779Z,101438.41
2023-04-08T18:59:54.639Z,101440.59
2023-04-08T19:02:23.058Z,101451.13
2023-04-08T19:04:50.000Z,101448.03
2023-04-08T19:07:17.555Z,101452.09
2023-04-08T19:09:44.408Z,101449.16
2023-04-08T19:12:11.243Z,101454.41
2023-04-08T19:14:38.237Z,101460.44
2023-04-08T19:17:05.531Z,101461.78
2023-04-08T19:19:32.883Z,101454.13
2023-04-08T19:22:02.910Z,101467.03
2023-04-08T19:24:29.826Z,101464.63
2023-04-08T19:26:56.908Z,101469.66
2023-04-08T19:29:24.697Z,101466.25
2023-04-08T19:31:51.862Z,101466.75
2023-04-08T19:34:18.711Z,101467.91
2023-04-08T19:36:45.777Z,101466.22
2023-04-08T19:39:12.854Z,101471.41
2023-04-08T19:41:39.795Z,101468.53
2023-04-08T19:44:06.804Z,101467.16
2023-04-08T19:46:34.237Z,101467.81
2023-04-08T19:49:01.711Z,101476.25
2023-04-08T19:51:29.537Z,101470.28
2023-04-08T19:53:56.593Z,101475.88
2023-04-08T19:56:23.637Z,101478.91
2023-04-08T19:58:50.949Z,101471.91
2023-04-08T20:01:18.527Z,101480.25
2023-04-08T20:03:50.751Z,101478.81
2023-04-08T20:06:18.334Z,101480.00
2023-04-08T20:08:45.924Z,101475.75
2023-04-08T20:11:13.895Z,101487.75
2023-04-08T20:13:40.859Z,101475.66
2023-04-08T20:16:07.994Z,101485.53
2023-04-08T20:18:34.945Z,101483.81
2023-04-08T20:21:02.000Z,101480.72
2023-04-08T20:23:28.942Z,101479.00
2023-04-08T20:25:56.858Z,101470.88
2023-04-08T20:28:24.397Z,101475.06
2023-04-08T20:30:52.179Z,101477.22
2023-04-08T20:33:19.422Z,101481.94
2023-04-08T20:35:47.051Z,101483.28
2023-04-08T20:38:14.842Z,101488.44
2023-04-08T20:40:45.728Z,101481.47
2023-04-08T20:43:12.972Z,101482.09
2023-04-08T20:45:39.843Z,101482.72
2023-04-08T20:48:07.627Z,101486.88
2023-04-08T20:50:35.238Z,101484.63
2023-04-08T20:53:02.188Z,101487.81
2023-04-08T20:55:29.145Z,101482.72
2023-04-08T20:57:56.037Z,101480.31
2023-04-08T21:00:23.071Z,101472.31
2023-04-08T21:02:51.127Z,101472.34
2023-04-08T21:05:18.271Z,101475.94
2023-04-08T21:07:45.330Z,101469.84
2023-04-08T21:10:16.077Z,101475.81
2023-04-08T21:12:43.591Z,101473.41
2023-04-08T21:15:11.320Z,101473.16
2023-04-08T21:17:38.691Z,101472.03
2023-04-08T21:20:06.834Z,101470.34
2023-04-08T21:22:33.787Z,101468.19
2023-04-08T21:25:00.863Z,101471.94
2023-04-08T21:27:29.440Z,101468.66
2023-04-08T21:29:56.727Z,101472.53
2023-04-08T21:32:23.840Z,101468.38
2023-04-08T21:34:54.444Z,101464.13
2023-04-08T21:37:21.509Z,101470.28
2023-04-08T21:39:48.694Z,101469.44
2023-04-08T21:42:15.665Z,101467.16
2023-04-08T21:44:42.827Z,101468.31
2023-04-08T21:47:09.690Z,101467.19
2023-04-08T21:49:36.615Z,101475.44
2023-04-08T21:52:05.056Z,101465.91
2023-04-08T21:54:31.982Z,101461.53
2023-04-08T21:56:59.356Z,101464.50
2023-04-08T21:59:27.939Z,101454.84
2023-04-08T22:01:55.147Z,101463.94
2023-04-08T22:04:22.091Z,101464.06
2023-04-08T22:06:49.800Z,101463.38
2023-04-08T22:09:17.227Z,101464.38
2023-04-08T22:11:44.178Z,101468.06
2023-04-08T22:14:11.389Z,101463.69
2023-04-08T22:16:38.633Z,101464.41
2023-04-08T22:19:06.101Z,101460.41
2023-04-08T22:21:33.123Z,101460.41
2023-04-08T22:24:00.148Z,101463.97
2023-04-08T22:26:27.841Z,101459.69
2023-04-08T22:28:55.015Z,101454.44
2023-04-08T22:31:22.442Z,101460.97
2023-04-08T22:33:49.450Z,101465.25
2023-04-08T22:36:16.329Z,101461.28
2023-04-08T22:38:43.476Z,101451.56
2023-04-08T22:41:21.036Z,101463.41
2023-04-08T22:43:48.961Z,101457.44
2023-04-08T22:46:18.509Z,101462.97
2023-04-08T22:48:46.269Z,101465.09
2023-04-08T22:51:13.811Z,101458.00
2023-04-08T22:53:40.840Z,101456.03
2023-04-08T22:56:07.825Z,101456.56
2023-04-08T22:58:34.722Z,101456.72
2023-04-08T23:01:02.704Z,101457.56
2023-04-08T23:03:29.840Z,101456.44
2023-04-08T23:05:56.770Z,101464.81
2023-04-08T23:08:23.718Z,101455.72
2023-04-08T23:10:50.735Z,101461.25
2023-04-08T23:13:17.602Z,101454.16
2023-04-08T23:15:44.880Z,101449.16
2023-04-08T23:18:11.930Z,101451.28
2023-04-08T23:20:38.806Z,101448.59
2023-04-08T23:23:05.648Z,101435.94
2023-04-08T23:25:36.480Z,101439.94
2023-04-08T23:28:03.708Z,101438.78
2023-04-08T23:30:30.624Z,101435.94
2023-04-08T23:32:57.590Z,101429.66
2023-04-08T23:35:24.487Z,101434.09
2023-04-08T23:37:51.519Z,101427.72
2023-04-08T23:40:18.601Z,101418.84
2023-04-08T23:42:45.612Z,101424.44
2023-04-08T23:45:12.551Z,101420.00
2023-04-08T23:47:39.829Z,101421.72
2023-04-08T23:50:08.265Z,101424.00
2023-04-08T23:52:35.598Z,101421.28
2023-04-08T23:55:02.503Z,101424.13
2023-04-08T23:57:29.387Z,101421.44
2023-04-08T23:59:57.755Z,101416.03
